Time;durP1;ratioP1;P1;durP2;ratioP2;P2;SDS_P1;SDS_P2;PMS_P1;PMS_P2;Temp;Humidity;BMP_temperature;BMP_pressure;BME280_temperature;BME280_humidity;BME280_pressure;Samples;Min_cycle;Max_cycle;Signal;HPM_P1;HPM_P2
2023/04/10 00:00:17;;;;;;;0.80;0.80;;;18.00;39.50;;;;;;6342986;22;20127;-82
2023/04/10 00:02:43;;;;;;;1.15;1.05;;;17.90;39.60;;;;;;6237182;22;20652;-80
2023/04/10 00:05:09;;;;;;;1.55;0.80;;;17.90;39.60;;;;;;6342935;22;20132;-81
2023/04/10 00:07:40;;;;;;;1.33;1.08;;;17.90;39.50;;;;;;6342798;22;20136;-81
2023/04/10 00:10:06;;;;;;;0.80;0.80;;;17.90;39.70;;;;;;6262217;22;20178;-81
2023/04/10 00:12:31;;;;;;;0.90;0.90;;;17.90;39.70;;;;;;6314383;22;20191;-80
2023/04/10 00:14:58;;;;;;;0.77;0.77;;;17.90;39.60;;;;;;6342196;22;20444;-80
2023/04/10 00:17:23;;;;;;;0.80;0.80;;;17.90;39.60;;;;;;6342903;22;20132;-81
2023/04/10 00:19:49;;;;;;;1.27;0.80;;;17.90;39.70;;;;;;6314318;22;20170;-80
2023/04/10 00:22:15;;;;;;;0.90;0.90;;;17.90;39.70;;;;;;6342114;22;20192;-81
2023/04/10 00:24:41;;;;;;;0.95;0.93;;;17.90;39.70;;;;;;6341817;22;20214;-82
2023/04/10 00:27:07;;;;;;;1.02;0.93;;;17.90;39.70;;;;;;6342233;22;20142;-82
2023/04/10 00:29:33;;;;;;;0.80;0.80;;;17.80;39.70;;;;;;6342065;22;20487;-81
2023/04/10 00:31:59;;;;;;;1.20;1.02;;;17.90;39.70;;;;;;6314896;22;20201;-81
2023/04/10 00:34:25;;;;;;;1.08;0.95;;;17.90;39.70;;;;;;6342419;22;20139;-80
2023/04/10 00:36:50;;;;;;;0.80;0.80;;;17.90;39.80;;;;;;6342281;22;20132;-81
2023/04/10 00:39:16;;;;;;;0.93;0.90;;;17.90;39.80;;;;;;6314061;22;20238;-82
2023/04/10 00:41:42;;;;;;;1.02;1.00;;;17.90;39.80;;;;;;6314569;22;20158;-81
2023/04/10 00:44:08;;;;;;;1.08;0.93;;;17.90;39.80;;;;;;6341808;22;20146;-80
2023/04/10 00:46:36;;;;;;;0.90;0.90;;;17.90;39.80;;;;;;6341961;22;20132;-82
2023/04/10 00:49:02;;;;;;;1.08;0.93;;;17.90;39.80;;;;;;6314350;22;20171;-83
2023/04/10 00:51:27;;;;;;;1.35;1.13;;;17.90;39.80;;;;;;6313936;22;20518;-82
2023/04/10 00:53:54;;;;;;;1.15;1.05;;;17.90;39.80;;;;;;6341982;22;20177;-81
2023/04/10 00:56:20;;;;;;;1.20;1.08;;;17.90;39.80;;;;;;6342364;22;20563;-83
2023/04/10 00:58:46;;;;;;;1.10;1.00;;;17.90;39.80;;;;;;6342644;22;20147;-81
2023/04/10 01:01:12;;;;;;;1.08;0.90;;;17.90;39.80;;;;;;6342234;22;20165;-81
2023/04/10 01:03:39;;;;;;;1.10;1.00;;;17.90;39.90;;;;;;6342529;22;20614;-81
2023/04/10 01:06:15;;;;;;;1.10;1.00;;;17.80;39.90;;;;;;6342103;22;20143;-83
2023/04/10 01:08:56;;;;;;;1.20;1.10;;;17.90;39.90;;;;;;6342316;22;20639;-82
2023/04/10 01:11:43;;;;;;;1.30;1.10;;;17.80;39.90;;;;;;6341751;22;20182;-83
2023/04/10 01:14:32;;;;;;;1.15;1.05;;;17.80;39.80;;;;;;6342338;22;20183;-82
2023/04/10 01:17:06;;;;;;;1.20;1.00;;;17.80;39.90;;;;;;6265957;22;20151;-80
2023/04/10 01:20:01;;;;;;;1.30;1.10;;;17.80;40.50;;;;;;6343601;22;20163;-81
2023/04/10 01:22:35;;;;;;;1.15;1.05;;;17.80;39.90;;;;;;6343838;22;20140;-80
2023/04/10 01:25:26;;;;;;;1.00;0.90;;;17.80;40.00;;;;;;6343594;22;20210;-83
2023/04/10 01:28:27;;;;;;;1.38;1.10;;;17.80;40.00;;;;;;6343657;22;20135;-81
2023/04/10 01:30:56;;;;;;;1.10;1.00;;;17.80;40.00;;;;;;6346926;22;20139;-82
2023/04/10 01:33:23;;;;;;;1.20;0.90;;;17.80;40.00;;;;;;6347269;22;20132;-80
2023/04/10 01:35:51;;;;;;;1.40;1.00;;;17.80;40.10;;;;;;6346742;22;20131;-80
2023/04/10 01:38:17;;;;;;;1.95;1.00;;;17.80;40.10;;;;;;6318168;22;20132;-80
2023/04/10 01:40:49;;;;;;;1.63;1.20;;;17.80;40.10;;;;;;6347216;22;20181;-82
2023/04/10 01:43:15;;;;;;;1.10;1.00;;;17.80;40.10;;;;;;6236938;22;20148;-82
2023/04/10 01:45:42;;;;;;;1.38;1.02;;;17.80;40.00;;;;;;6344020;22;20131;-81
2023/04/10 01:48:09;;;;;;;1.60;1.30;;;17.80;40.10;;;;;;6346793;22;20131;-81
2023/04/10 01:50:35;;;;;;;1.13;1.02;;;17.80;40.10;;;;;;6317982;22;20220;-80
2023/04/10 01:53:02;;;;;;;1.52;1.20;;;17.80;40.00;;;;;;6346209;22;20547;-82
2023/04/10 01:55:28;;;;;;;1.10;0.93;;;17.80;40.10;;;;;;6346046;22;20185;-83
2023/04/10 01:57:54;;;;;;;1.10;1.00;;;17.80;40.10;;;;;;6346572;22;20462;-81
2023/04/10 02:00:20;;;;;;;1.08;0.98;;;17.80;40.10;;;;;;6345729;22;20136;-80
2023/04/10 02:02:46;;;;;;;0.85;0.85;;;17.80;40.20;;;;;;6345832;22;20136;-81
2023/04/10 02:05:15;;;;;;;1.00;0.90;;;17.80;40.20;;;;;;6346461;22;20139;-80
2023/04/10 02:08:17;;;;;;;1.77;1.00;;;17.80;40.10;;;;;;6241507;22;20156;-82
2023/04/10 02:10:50;;;;;;;1.40;1.30;;;17.80;40.20;;;;;;6346932;22;20142;-82
2023/04/10 02:13:18;;;;;;;1.02;0.88;;;17.80;40.20;;;;;;6318481;22;20195;-82
2023/04/10 02:15:45;;;;;;;1.60;1.08;;;17.80;40.20;;;;;;6317816;22;20587;-81
2023/04/10 02:18:11;;;;;;;0.90;0.88;;;17.80;40.30;;;;;;6293048;22;20152;-79
2023/04/10 02:20:37;;;;;;;1.85;1.10;;;17.70;40.30;;;;;;6292772;22;20148;-80
2023/04/10 02:23:04;;;;;;;1.30;1.20;;;17.70;40.20;;;;;;6345602;22;20241;-80
2023/04/10 02:25:32;;;;;;;1.35;0.90;;;17.70;40.20;;;;;;6346057;22;20128;-82
2023/04/10 02:28:09;;;;;;;1.20;0.98;;;17.70;40.20;;;;;;6318824;22;20139;-81
2023/04/10 02:30:39;;;;;;;1.23;1.13;;;17.70;40.40;;;;;;6241614;22;20215;-81
2023/04/10 02:33:05;;;;;;;1.33;1.05;;;17.70;40.30;;;;;;6240887;22;20152;-82
2023/04/10 02:35:36;;;;;;;1.40;1.05;;;17.70;40.30;;;;;;6345776;22;20132;-80
2023/04/10 02:38:02;;;;;;;0.80;0.80;;;17.70;40.30;;;;;;6266697;22;20151;-81
2023/04/10 02:40:28;;;;;;;2.08;1.20;;;17.70;40.40;;;;;;6346811;22;20161;-81
2023/04/10 02:42:54;;;;;;;1.23;1.13;;;17.70;40.30;;;;;;6346433;22;20226;-80
2023/04/10 02:45:23;;;;;;;1.15;1.05;;;17.70;40.40;;;;;;6346152;22;20445;-79
2023/04/10 02:47:53;;;;;;;1.25;1.00;;;17.70;40.30;;;;;;6240958;22;20232;-81
2023/04/10 02:50:19;;;;;;;1.30;1.17;;;17.70;40.40;;;;;;6240551;22;20187;-80
2023/04/10 02:52:45;;;;;;;1.67;1.30;;;17.70;40.30;;;;;;6318923;22;20476;-81
2023/04/10 02:55:11;;;;;;;1.40;1.15;;;17.70;40.40;;;;;;6346637;22;20131;-81
2023/04/10 02:57:37;;;;;;;1.23;0.95;;;17.70;40.40;;;;;;6345917;22;20141;-80
2023/04/10 03:00:04;;;;;;;1.13;1.02;;;17.70;40.40;;;;;;6345139;22;20468;-79
2023/04/10 03:02:30;;;;;;;1.17;1.08;;;17.70;40.50;;;;;;6345982;22;20136;-80
2023/04/10 03:04:56;;;;;;;1.52;1.10;;;17.70;40.40;;;;;;6346330;22;20139;-80
2023/04/10 03:07:26;;;;;;;1.40;1.20;;;17.70;40.50;;;;;;6345226;22;20523;-80
2023/04/10 03:09:52;;;;;;;1.10;1.00;;;17.70;40.50;;;;;;6265658;22;20540;-80
2023/04/10 03:12:17;;;;;;;1.38;0.93;;;17.70;40.50;;;;;;6345432;22;20179;-79
2023/04/10 03:14:43;;;;;;;2.67;1.25;;;17.70;40.50;;;;;;6292351;22;20193;-80
2023/04/10 03:17:11;;;;;;;1.50;1.20;;;17.70;40.50;;;;;;6292001;22;20586;-81
2023/04/10 03:19:36;;;;;;;1.10;0.98;;;17.70;40.40;;;;;;6346135;22;20128;-81
2023/04/10 03:22:02;;;;;;;1.10;0.90;;;17.70;40.50;;;;;;6344840;22;20170;-79
2023/04/10 03:24:32;;;;;;;1.10;1.00;;;17.70;40.50;;;;;;6345756;22;20202;-81
2023/04/10 03:27:02;;;;;;;1.52;1.30;;;17.70;40.50;;;;;;6240169;22;20162;-80
2023/04/10 03:29:28;;;;;;;1.30;1.00;;;17.60;40.50;;;;;;6240166;22;20213;-80
2023/04/10 03:31:54;;;;;;;1.10;1.00;;;17.70;41.20;;;;;;6345770;22;20128;-82
2023/04/10 03:34:20;;;;;;;1.00;0.90;;;17.70;40.50;;;;;;6344911;22;20210;-81
2023/04/10 03:36:50;;;;;;;1.10;1.00;;;17.70;40.50;;;;;;6345700;22;20153;-80
2023/04/10 03:39:16;;;;;;;1.92;1.27;;;17.70;40.50;;;;;;6240546;22;20158;-80
2023/04/10 03:41:49;;;;;;;1.10;1.00;;;17.70;40.60;;;;;;6317552;22;20199;-80
2023/04/10 03:44:19;;;;;;;1.20;1.00;;;17.70;40.60;;;;;;6265198;22;20159;-82
2023/04/10 03:46:46;;;;;;;0.95;0.95;;;17.60;40.60;;;;;;6264455;22;20216;-80
2023/04/10 03:49:16;;;;;;;1.20;1.10;;;17.60;40.50;;;;;;6345741;22;20234;-80
2023/04/10 03:51:42;;;;;;;1.40;1.30;;;17.70;40.50;;;;;;6266260;22;20143;-80
2023/04/10 03:54:08;;;;;;;1.15;1.08;;;17.60;40.60;;;;;;6345534;22;20143;-81
2023/04/10 03:56:38;;;;;;;1.05;0.95;;;17.60;40.60;;;;;;6344904;22;20455;-80
2023/04/10 03:59:03;;;;;;;1.40;1.30;;;17.60;40.60;;;;;;6264718;22;20177;-82
2023/04/10 04:01:31;;;;;;;1.20;1.10;;;17.60;40.50;;;;;;6345603;22;20142;-81
2023/04/10 04:03:57;;;;;;;1.25;1.15;;;17.60;40.60;;;;;;6345386;22;20135;-82
2023/04/10 04:06:30;;;;;;;1.20;1.10;;;17.70;40.60;;;;;;6317159;22;20143;-80
2023/04/10 04:08:55;;;;;;;1.15;1.00;;;17.60;40.60;;;;;;6239938;22;20224;-80
2023/04/10 04:11:21;;;;;;;1.85;1.08;;;17.60;40.60;;;;;;6345566;22;20676;-80
2023/04/10 04:13:47;;;;;;;1.13;1.00;;;17.60;40.60;;;;;;6345186;22;20182;-81
2023/04/10 04:16:19;;;;;;;1.92;1.13;;;17.60;40.70;;;;;;6345006;22;20213;-81
2023/04/10 04:18:49;;;;;;;1.20;1.10;;;17.60;40.60;;;;;;6239188;22;20151;-80
2023/04/10 04:21:15;;;;;;;1.15;0.98;;;17.60;40.60;;;;;;6239948;22;20182;-80
2023/04/10 04:23:41;;;;;;;3.08;1.00;;;17.70;40.80;;;;;;6344549;22;20132;-81
2023/04/10 04:26:07;;;;;;;1.60;1.17;;;17.60;40.80;;;;;;6317381;22;20150;-82
2023/04/10 04:28:33;;;;;;;1.30;1.20;;;17.60;40.70;;;;;;6344638;22;20197;-80
2023/04/10 04:31:02;;;;;;;1.40;1.30;;;17.60;40.70;;;;;;6344887;22;20139;-81
2023/04/10 04:33:28;;;;;;;1.17;1.05;;;17.50;40.70;;;;;;6264634;22;20629;-79
2023/04/10 04:35:59;;;;;;;1.10;1.00;;;17.60;40.70;;;;;;6316195;22;20176;-82
2023/04/10 04:38:25;;;;;;;1.30;1.20;;;17.60;40.70;;;;;;6233098;22;20148;-79
2023/04/10 04:40:51;;;;;;;1.20;1.10;;;17.60;40.70;;;;;;6314027;22;20158;-81
2023/04/10 04:43:16;;;;;;;1.73;1.17;;;17.60;40.70;;;;;;6342179;22;20470;-80
2023/04/10 04:45:42;;;;;;;1.40;1.10;;;17.60;40.70;;;;;;6341774;22;20139;-79
2023/04/10 04:48:08;;;;;;;1.02;0.93;;;17.60;40.80;;;;;;6342464;22;20132;-81
2023/04/10 04:50:34;;;;;;;1.27;1.17;;;17.60;40.80;;;;;;6289653;22;20274;-81
2023/04/10 04:53:00;;;;;;;1.33;1.13;;;17.60;40.70;;;;;;6343809;22;20196;-79
2023/04/10 04:55:26;;;;;;;1.35;1.00;;;17.60;40.90;;;;;;6343945;22;20134;-80
2023/04/10 04:57:52;;;;;;;1.02;1.00;;;17.60;40.80;;;;;;6313809;22;20534;-80
2023/04/10 05:00:18;;;;;;;1.20;1.10;;;17.60;40.70;;;;;;6341119;22;20179;-82
2023/04/10 05:02:44;;;;;;;1.20;1.10;;;17.60;40.70;;;;;;6340849;22;20207;-81
2023/04/10 05:05:10;;;;;;;1.30;1.20;;;17.70;40.80;;;;;;6341394;22;20135;-82
2023/04/10 05:07:36;;;;;;;0.98;0.90;;;17.70;40.70;;;;;;6340996;22;20136;-81
2023/04/10 05:10:02;;;;;;;1.33;1.23;;;17.70;40.70;;;;;;6340701;22;20467;-80
2023/04/10 05:12:28;;;;;;;1.17;1.08;;;17.60;40.70;;;;;;6287110;22;20652;-80
2023/04/10 05:14:54;;;;;;;1.20;1.10;;;17.70;40.60;;;;;;6313851;22;20579;-78
2023/04/10 05:17:20;;;;;;;1.40;1.10;;;17.70;40.70;;;;;;6341493;22;20131;-80
2023/04/10 05:19:46;;;;;;;1.10;1.00;;;17.70;40.70;;;;;;6340761;22;20563;-80
2023/04/10 05:22:12;;;;;;;1.65;1.20;;;17.70;40.60;;;;;;6340913;22;20163;-81
2023/04/10 05:24:37;;;;;;;1.35;1.10;;;17.80;40.60;;;;;;6313251;22;20559;-81
2023/04/10 05:27:04;;;;;;;1.60;1.20;;;17.70;40.60;;;;;;6340517;22;20139;-80
2023/04/10 05:29:30;;;;;;;1.30;1.13;;;17.70;40.50;;;;;;6340434;22;21114;-82
2023/04/10 05:31:56;;;;;;;1.55;1.17;;;17.80;40.50;;;;;;6340476;22;20131;-81
2023/04/10 05:34:21;;;;;;;2.20;1.38;;;17.80;40.50;;;;;;6340607;22;20127;-80
2023/04/10 05:36:47;;;;;;;1.30;1.20;;;17.80;40.50;;;;;;6340591;22;20189;-81
2023/04/10 05:39:14;;;;;;;3.78;1.10;;;17.80;40.50;;;;;;6340678;22;20139;-82
2023/04/10 05:41:40;;;;;;;2.17;1.20;;;17.80;40.50;;;;;;6313238;22;20131;-82
2023/04/10 05:44:06;;;;;;;1.50;1.20;;;17.90;40.40;;;;;;6340777;22;20166;-83
2023/04/10 05:46:32;;;;;;;1.20;1.10;;;17.80;41.10;;;;;;6340340;22;20559;-80
2023/04/10 05:48:58;;;;;;;1.10;1.00;;;17.80;40.40;;;;;;6340656;22;20493;-79
2023/04/10 05:51:25;;;;;;;1.35;1.25;;;17.80;40.30;;;;;;6340654;22;20128;-79
2023/04/10 05:53:50;;;;;;;1.27;1.10;;;17.90;40.40;;;;;;6313082;22;20131;-81
2023/04/10 05:56:17;;;;;;;1.80;1.42;;;17.90;40.40;;;;;;6312723;22;20462;-81
2023/04/10 05:58:43;;;;;;;1.55;1.17;;;17.90;40.40;;;;;;6340717;22;20454;-80
2023/04/10 06:01:10;;;;;;;1.20;1.10;;;17.90;40.80;;;;;;6339770;22;20599;-82
2023/04/10 06:03:36;;;;;;;1.30;1.20;;;17.90;40.40;;;;;;6340218;22;20249;-80
2023/04/10 06:06:02;;;;;;;1.20;1.10;;;17.90;40.40;;;;;;6340072;22;20585;-82
2023/04/10 06:08:28;;;;;;;1.35;1.20;;;17.90;40.40;;;;;;6312421;22;20155;-82
2023/04/10 06:10:54;;;;;;;2.40;1.20;;;17.90;40.40;;;;;;6313052;22;20131;-82
2023/04/10 06:13:20;;;;;;;1.33;1.20;;;17.90;40.30;;;;;;6339866;22;20190;-80
2023/04/10 06:15:46;;;;;;;2.30;1.15;;;17.90;40.30;;;;;;6340185;22;20143;-81
2023/04/10 06:18:12;;;;;;;2.22;1.30;;;17.90;40.30;;;;;;6312796;22;20230;-82
2023/04/10 06:20:38;;;;;;;1.60;1.23;;;17.90;40.20;;;;;;6312512;22;20436;-79
2023/04/10 06:23:04;;;;;;;1.45;1.27;;;18.00;40.30;;;;;;6340509;22;20631;-82
2023/04/10 06:25:30;;;;;;;1.67;1.33;;;18.00;40.30;;;;;;6339993;22;20139;-82
2023/04/10 06:27:56;;;;;;;1.27;1.05;;;18.00;40.30;;;;;;6340012;22;20463;-80
2023/04/10 06:30:22;;;;;;;2.00;1.20;;;18.00;40.20;;;;;;6340289;22;20236;-83
2023/04/10 06:32:48;;;;;;;1.55;1.17;;;18.00;40.30;;;;;;6339965;22;20124;-83
2023/04/10 06:35:14;;;;;;;1.23;1.13;;;17.90;40.20;;;;;;6339807;22;20136;-79
2023/04/10 06:37:40;;;;;;;1.23;1.10;;;17.90;40.30;;;;;;6339854;22;20128;-82
2023/04/10 06:40:09;;;;;;;1.70;1.10;;;18.00;40.40;;;;;;6312116;22;20150;-82
2023/04/10 06:42:35;;;;;;;1.45;1.27;;;17.90;40.30;;;;;;6340252;22;20138;-79
2023/04/10 06:45:01;;;;;;;1.52;1.10;;;18.00;40.30;;;;;;6312214;22;20132;-80
2023/04/10 06:47:27;;;;;;;1.40;1.30;;;18.10;40.30;;;;;;6339949;22;20131;-79
2023/04/10 06:49:53;;;;;;;0.90;0.90;;;18.00;40.10;;;;;;6339581;22;20192;-81
2023/04/10 06:52:19;;;;;;;1.30;1.10;;;18.00;40.30;;;;;;6340059;22;20140;-79
2023/04/10 06:54:45;;;;;;;1.77;1.20;;;17.90;40.30;;;;;;6312076;22;20237;-81
2023/04/10 06:57:11;;;;;;;1.40;1.30;;;18.00;40.30;;;;;;6339668;22;20135;-79
2023/04/10 06:59:37;;;;;;;1.40;1.27;;;18.00;40.10;;;;;;6339877;22;20143;-82
2023/04/10 07:02:03;;;;;;;1.10;1.00;;;18.10;40.00;;;;;;6339966;22;20630;-82
2023/04/10 07:04:30;;;;;;;1.30;1.20;;;18.20;39.90;;;;;;6339580;22;20136;-80
2023/04/10 07:06:56;;;;;;;1.52;1.25;;;18.20;40.00;;;;;;6312555;22;20128;-81
2023/04/10 07:09:25;;;;;;;1.13;1.00;;;18.10;40.00;;;;;;6339553;22;20240;-81
2023/04/10 07:11:51;;;;;;;1.30;1.20;;;18.20;40.00;;;;;;6339430;22;20478;-81
2023/04/10 07:14:17;;;;;;;1.33;1.00;;;18.20;39.70;;;;;;6339718;22;20179;-82
2023/04/10 07:16:43;;;;;;;1.27;1.17;;;18.30;39.70;;;;;;6339816;22;20124;-82
2023/04/10 07:19:09;;;;;;;1.65;1.25;;;18.30;39.80;;;;;;6339727;22;20146;-80
2023/04/10 07:21:35;;;;;;;1.10;1.00;;;18.30;39.80;;;;;;6339469;22;20136;-83
2023/04/10 07:24:01;;;;;;;1.30;1.20;;;18.20;40.00;;;;;;6339317;22;20206;-80
2023/04/10 07:26:27;;;;;;;1.17;0.93;;;18.20;39.90;;;;;;6311621;22;20158;-80
2023/04/10 07:28:53;;;;;;;2.10;1.00;;;18.20;40.00;;;;;;6339234;22;20222;-80
2023/04/10 07:31:19;;;;;;;1.73;1.10;;;18.20;39.90;;;;;;6339248;22;20136;-81
2023/04/10 07:33:45;;;;;;;1.20;1.10;;;18.30;39.90;;;;;;6339256;22;20181;-80
2023/04/10 07:36:11;;;;;;;1.27;0.98;;;18.30;40.00;;;;;;6312361;22;20177;-80
2023/04/10 07:38:37;;;;;;;2.20;1.05;;;18.20;39.90;;;;;;6311645;22;20155;-80
2023/04/10 07:41:04;;;;;;;1.05;0.95;;;18.20;39.80;;;;;;6312012;22;20131;-82
2023/04/10 07:43:30;;;;;;;1.23;1.00;;;18.20;39.90;;;;;;6339476;22;20185;-82
2023/04/10 07:45:56;;;;;;;1.30;1.20;;;18.20;39.90;;;;;;6311711;22;20132;-79
2023/04/10 07:48:22;;;;;;;0.95;0.95;;;18.20;39.90;;;;;;6339351;22;20161;-82
2023/04/10 07:50:48;;;;;;;1.38;0.90;;;18.30;40.00;;;;;;6339193;22;20638;-81
2023/04/10 07:53:14;;;;;;;1.30;1.10;;;18.30;39.70;;;;;;6339147;22;20151;-82
2023/04/10 07:55:42;;;;;;;1.30;1.00;;;18.30;39.80;;;;;;6311769;22;20127;-81
2023/04/10 07:58:08;;;;;;;1.25;1.10;;;18.30;39.70;;;;;;6339048;22;20154;-83
2023/04/10 08:00:34;;;;;;;1.13;1.02;;;18.30;39.60;;;;;;6339486;22;20143;-80
2023/04/10 08:03:00;;;;;;;1.70;0.90;;;18.30;39.60;;;;;;6339027;22;20136;-82
2023/04/10 08:05:26;;;;;;;1.20;1.10;;;18.30;39.50;;;;;;6311542;22;20405;-80
2023/04/10 08:07:52;;;;;;;1.23;1.10;;;18.30;39.40;;;;;;6311297;22;20151;-82
2023/04/10 08:10:18;;;;;;;1.15;1.05;;;18.30;39.50;;;;;;6338868;22;20232;-82
2023/04/10 08:12:43;;;;;;;1.02;1.00;;;18.40;39.50;;;;;;6338747;22;20618;-80
2023/04/10 08:15:10;;;;;;;1.02;0.90;;;18.40;40.10;;;;;;6339083;22;20128;-80
2023/04/10 08:17:39;;;;;;;1.08;0.98;;;18.40;39.30;;;;;;6339202;22;20132;-80
2023/04/10 08:20:06;;;;;;;1.10;0.95;;;18.40;39.30;;;;;;6259265;22;20156;-83
2023/04/10 08:22:32;;;;;;;1.00;0.90;;;18.40;39.30;;;;;;6338576;22;20135;-80
2023/04/10 08:24:58;;;;;;;1.25;1.10;;;18.50;39.40;;;;;;6338963;22;20132;-82
2023/04/10 08:27:24;;;;;;;2.33;1.00;;;18.40;39.40;;;;;;6339270;22;20608;-81
2023/04/10 08:29:50;;;;;;;0.95;0.85;;;18.40;39.40;;;;;;6310930;22;20175;-82
2023/04/10 08:32:16;;;;;;;0.82;0.82;;;18.40;39.50;;;;;;6338857;22;20448;-80
2023/04/10 08:34:41;;;;;;;1.13;1.00;;;18.40;39.40;;;;;;6311334;22;20131;-80
2023/04/10 08:37:10;;;;;;;1.20;1.10;;;18.40;39.20;;;;;;6311408;22;20131;-83
2023/04/10 08:39:37;;;;;;;1.10;1.00;;;18.50;39.50;;;;;;6339014;22;20181;-82
2023/04/10 08:42:03;;;;;;;1.55;1.00;;;18.30;39.50;;;;;;6339111;22;20147;-81
2023/04/10 08:44:29;;;;;;;0.80;0.80;;;18.40;39.40;;;;;;6338892;22;20139;-81
2023/04/10 08:46:57;;;;;;;1.27;1.00;;;18.40;39.40;;;;;;6338808;22;20131;-81
2023/04/10 08:49:38;;;;;;;1.17;1.08;;;18.40;39.50;;;;;;6310955;22;20162;-83
2023/04/10 08:52:06;;;;;;;0.80;0.80;;;18.30;39.60;;;;;;6338994;22;20136;-82
2023/04/10 08:54:33;;;;;;;0.80;0.80;;;18.30;39.60;;;;;;6311483;22;20135;-80
2023/04/10 08:57:00;;;;;;;1.05;0.73;;;18.30;39.60;;;;;;6310903;22;20606;-80
2023/04/10 08:59:28;;;;;;;1.08;0.90;;;18.30;39.80;;;;;;6338609;22;20207;-81
2023/04/10 09:01:54;;;;;;;0.73;0.70;;;18.30;39.70;;;;;;6311674;22;20158;-82
2023/04/10 09:04:20;;;;;;;1.13;0.90;;;18.30;39.80;;;;;;6339112;22;20565;-80
2023/04/10 09:06:46;;;;;;;0.82;0.70;;;18.20;39.90;;;;;;6339205;22;20214;-81
2023/04/10 09:09:12;;;;;;;0.90;0.80;;;18.30;39.70;;;;;;6338771;22;20167;-81
2023/04/10 09:11:59;;;;;;;0.80;0.80;;;18.30;39.90;;;;;;6285460;22;20146;-82
2023/04/10 09:14:28;;;;;;;1.00;0.85;;;18.20;40.00;;;;;;6339598;22;20152;-81
2023/04/10 09:17:16;;;;;;;1.00;0.80;;;18.20;40.10;;;;;;6311412;22;20128;-82
2023/04/10 09:19:44;;;;;;;0.80;0.70;;;18.30;39.90;;;;;;6339341;22;20136;-80
2023/04/10 09:22:10;;;;;;;0.82;0.80;;;18.40;39.60;;;;;;6338592;22;20127;-82
2023/04/10 09:24:38;;;;;;;0.80;0.80;;;18.40;39.50;;;;;;6311259;22;20143;-81
2023/04/10 09:27:05;;;;;;;0.73;0.70;;;18.50;39.40;;;;;;6338711;22;20138;-81
2023/04/10 09:29:47;;;;;;;0.82;0.82;;;18.60;39.50;;;;;;6338600;22;20171;-83
2023/04/10 09:32:24;;;;;;;0.80;0.80;;;18.50;39.50;;;;;;6311969;22;20134;-81
2023/04/10 09:34:52;;;;;;;1.02;0.80;;;18.50;39.40;;;;;;6339171;22;20218;-81
2023/04/10 09:37:21;;;;;;;1.42;1.02;;;18.40;39.50;;;;;;6312893;22;20124;-82
2023/04/10 09:39:47;;;;;;;0.77;0.73;;;18.50;39.50;;;;;;6340444;22;20127;-82
2023/04/10 09:42:14;;;;;;;0.70;0.70;;;18.50;39.40;;;;;;6312880;22;20191;-81
2023/04/10 09:44:40;;;;;;;0.70;0.70;;;18.50;39.50;;;;;;6312822;22;20148;-81
2023/04/10 09:47:20;;;;;;;0.80;0.70;;;18.40;39.50;;;;;;6312937;22;20142;-80
2023/04/10 09:49:51;;;;;;;0.80;0.80;;;18.50;39.60;;;;;;6313381;22;20484;-82
2023/04/10 09:52:21;;;;;;;1.55;0.70;;;18.50;39.80;;;;;;6261311;22;20602;-80
2023/04/10 09:54:47;;;;;;;0.82;0.70;;;18.50;40.20;;;;;;6340638;22;20131;-81
2023/04/10 09:57:18;;;;;;;0.63;0.63;;;18.60;39.40;;;;;;6340856;22;20510;-81
2023/04/10 09:59:47;;;;;;;0.88;0.88;;;18.50;39.40;;;;;;6340364;22;20583;-80
2023/04/10 10:02:13;;;;;;;0.60;0.60;;;18.50;39.50;;;;;;6313073;22;20475;-81
2023/04/10 10:04:39;;;;;;;0.90;0.77;;;18.50;39.70;;;;;;6340848;22;20132;-81
2023/04/10 10:07:05;;;;;;;0.70;0.70;;;18.50;39.80;;;;;;6287850;22;20182;-81
2023/04/10 10:09:31;;;;;;;0.82;0.73;;;18.50;39.70;;;;;;6340257;22;20155;-81
2023/04/10 10:11:57;;;;;;;0.60;0.60;;;18.50;39.70;;;;;;6312602;22;20175;-81
2023/04/10 10:14:23;;;;;;;0.80;0.60;;;18.50;39.70;;;;;;6339675;22;20187;-81
2023/04/10 10:16:50;;;;;;;0.70;0.68;;;18.50;39.50;;;;;;6339981;22;20210;-80
2023/04/10 10:19:21;;;;;;;0.82;0.82;;;18.60;39.70;;;;;;6286950;22;20159;-81
2023/04/10 10:21:47;;;;;;;0.80;0.63;;;18.50;39.70;;;;;;6340195;22;20163;-82
2023/04/10 10:24:13;;;;;;;2.65;0.80;;;18.60;39.60;;;;;;6339917;22;20205;-81
2023/04/10 10:26:39;;;;;;;0.60;0.60;;;18.60;39.30;;;;;;6340143;22;20142;-80
2023/04/10 10:29:09;;;;;;;0.55;0.55;;;18.60;39.60;;;;;;6340677;22;20163;-81
2023/04/10 10:31:36;;;;;;;0.70;0.70;;;18.50;39.70;;;;;;6340052;22;20478;-80
2023/04/10 10:34:04;;;;;;;0.80;0.80;;;18.50;39.40;;;;;;6339912;22;20128;-80
2023/04/10 10:36:32;;;;;;;0.80;0.68;;;18.60;39.60;;;;;;6313082;22;20214;-81
2023/04/10 10:39:14;;;;;;;0.65;0.65;;;18.60;39.40;;;;;;6313116;22;20139;-82
2023/04/10 10:41:55;;;;;;;0.50;0.50;;;18.60;39.40;;;;;;6339713;22;20131;-81
2023/04/10 10:44:33;;;;;;;1.20;0.70;;;18.60;39.70;;;;;;6312306;22;20452;-82
2023/04/10 10:47:17;;;;;;;0.80;0.70;;;18.60;39.20;;;;;;6340025;22;20143;-82
2023/04/10 10:49:55;;;;;;;0.70;0.70;;;18.60;39.40;;;;;;6340130;22;20242;-82
2023/04/10 10:52:43;;;;;;;0.60;0.60;;;18.60;39.70;;;;;;6340143;22;20131;-82
2023/04/10 10:55:30;;;;;;;0.65;0.50;;;18.60;39.50;;;;;;6312433;22;20147;-81
2023/04/10 10:57:58;;;;;;;0.60;0.60;;;18.60;39.40;;;;;;6313096;22;20566;-82
2023/04/10 11:00:24;;;;;;;0.63;0.63;;;18.60;39.60;;;;;;6340214;22;20145;-82
2023/04/10 11:03:27;;;;;;;0.70;0.70;;;18.60;39.30;;;;;;6312472;22;20214;-80
2023/04/10 11:06:11;;;;;;;0.60;0.60;;;18.60;39.40;;;;;;6340693;22;20177;-80
2023/04/10 11:08:43;;;;;;;1.02;0.70;;;18.60;39.40;;;;;;6312530;22;20189;-81
2023/04/10 11:11:14;;;;;;;0.60;0.60;;;18.60;39.60;;;;;;6312263;22;20128;-81
2023/04/10 11:13:42;;;;;;;1.17;0.63;;;18.60;39.50;;;;;;6339309;22;20634;-81
2023/04/10 11:16:09;;;;;;;0.50;0.50;;;18.60;39.30;;;;;;6339688;22;20136;-81
2023/04/10 11:19:03;;;;;;;0.68;0.68;;;18.60;39.30;;;;;;6311837;22;20155;-81
2023/04/10 11:21:30;;;;;;;0.77;0.57;;;18.70;39.40;;;;;;6339376;22;20433;-81
2023/04/10 11:24:04;;;;;;;0.60;0.60;;;18.60;39.30;;;;;;6312724;22;20130;-81
2023/04/10 11:26:38;;;;;;;0.60;0.60;;;18.60;39.50;;;;;;6312579;22;20135;-80
2023/04/10 11:29:25;;;;;;;0.60;0.60;;;18.60;39.10;;;;;;6312543;22;20624;-80
2023/04/10 11:32:00;;;;;;;0.40;0.40;;;18.60;39.40;;;;;;6316765;22;20138;-80
2023/04/10 11:34:27;;;;;;;0.63;0.60;;;18.60;39.40;;;;;;6339365;22;20131;-81
2023/04/10 11:36:53;;;;;;;0.47;0.47;;;18.60;39.40;;;;;;6339430;22;20177;-81
2023/04/10 11:39:19;;;;;;;0.63;0.63;;;18.70;39.30;;;;;;6311727;22;20155;-81
2023/04/10 11:41:47;;;;;;;0.70;0.70;;;18.60;39.10;;;;;;6339214;22;20620;-81
2023/04/10 11:44:16;;;;;;;0.50;0.50;;;18.70;39.20;;;;;;6339220;22;20207;-80
2023/04/10 11:46:45;;;;;;;0.60;0.60;;;18.70;39.10;;;;;;6339297;22;20132;-80
2023/04/10 11:49:12;;;;;;;0.95;0.60;;;18.70;39.00;;;;;;6312135;22;20609;-81
2023/04/10 11:51:38;;;;;;;0.40;0.40;;;18.70;39.30;;;;;;6311511;22;20524;-80
2023/04/10 11:54:14;;;;;;;0.60;0.60;;;18.70;39.20;;;;;;6339271;22;20541;-80
2023/04/10 11:56:42;;;;;;;3.20;0.77;;;18.60;39.50;;;;;;6339287;22;20154;-81
2023/04/10 11:59:09;;;;;;;0.55;0.55;;;18.50;39.40;;;;;;6338983;22;20136;-81
2023/04/10 12:01:36;;;;;;;0.50;0.50;;;18.60;39.30;;;;;;6311717;22;20127;-82
2023/04/10 12:04:02;;;;;;;0.57;0.57;;;18.60;39.40;;;;;;6311359;22;20207;-81
2023/04/10 12:06:28;;;;;;;0.60;0.60;;;18.60;39.10;;;;;;6339099;22;20132;-81
2023/04/10 12:08:54;;;;;;;0.75;0.60;;;18.60;38.90;;;;;;6338877;22;20155;-81
2023/04/10 12:11:22;;;;;;;0.88;0.55;;;18.70;38.80;;;;;;6312115;22;20218;-81
2023/04/10 12:13:51;;;;;;;0.80;0.60;;;18.70;38.70;;;;;;6338784;22;20190;-81
2023/04/10 12:16:17;;;;;;;0.80;0.60;;;18.70;38.70;;;;;;6311386;22;20132;-81
2023/04/10 12:18:44;;;;;;;0.73;0.50;;;18.70;38.70;;;;;;6339216;22;20158;-80
2023/04/10 12:21:09;;;;;;;0.55;0.55;;;18.70;38.80;;;;;;6338935;22;20201;-82
2023/04/10 12:23:37;;;;;;;0.50;0.50;;;18.60;38.70;;;;;;6285534;22;20511;-81
2023/04/10 12:26:09;;;;;;;0.60;0.60;;;18.70;38.70;;;;;;6286141;22;20130;-80
2023/04/10 12:28:35;;;;;;;1.85;0.70;;;18.70;38.70;;;;;;6285898;22;20176;-80
2023/04/10 12:31:02;;;;;;;0.52;0.52;;;18.70;38.90;;;;;;6311686;22;20136;-80
2023/04/10 12:33:27;;;;;;;1.48;0.50;;;18.70;38.80;;;;;;6339151;22;20209;-80
2023/04/10 12:35:53;;;;;;;0.43;0.43;;;18.70;38.60;;;;;;6311410;22;20136;-82
2023/04/10 12:38:35;;;;;;;0.40;0.40;;;18.70;39.70;;;;;;6338900;22;20142;-82
2023/04/10 12:41:01;;;;;;;0.60;0.50;;;18.80;38.80;;;;;;6339061;22;20138;-82
2023/04/10 12:43:32;;;;;;;0.50;0.50;;;18.70;38.70;;;;;;6311320;22;20132;-82
2023/04/10 12:45:58;;;;;;;1.08;0.50;;;18.70;38.90;;;;;;6311684;22;20139;-80
2023/04/10 12:48:24;;;;;;;0.93;0.50;;;18.70;39.10;;;;;;6338841;22;20460;-81
2023/04/10 12:50:50;;;;;;;0.75;0.60;;;18.60;39.10;;;;;;6338665;22;20170;-81
2023/04/10 12:53:15;;;;;;;0.50;0.50;;;18.60;39.20;;;;;;6338835;22;20567;-82